createdAt,value
2018-05-04T00:00:00.200Z,17.57
2018-05-04T00:02:26.745Z,17.57
2018-05-04T00:04:53.341Z,17.43
2018-05-04T00:07:19.822Z,18.30
2018-05-04T00:09:46.299Z,18.40
2018-05-04T00:12:12.840Z,17.43
2018-05-04T00:14:39.352Z,17.53
2018-05-04T00:17:05.952Z,17.37
2018-05-04T00:19:32.480Z,17.60
2018-05-04T00:21:58.953Z,17.57
2018-05-04T00:24:25.465Z,17.07
2018-05-04T00:26:52.005Z,17.20
2018-05-04T00:29:18.489Z,17.43
2018-05-04T00:31:45.016Z,17.10
2018-05-04T00:34:11.458Z,16.63
2018-05-04T00:36:37.920Z,16.63
2018-05-04T00:39:04.505Z,16.93
2018-05-04T00:41:31.113Z,16.43
2018-05-04T00:43:57.516Z,16.93
2018-05-04T00:46:24.033Z,17.37
2018-05-04T00:48:50.649Z,17.37
2018-05-04T00:51:17.140Z,17.17
2018-05-04T00:53:55.796Z,15.80
2018-05-04T00:56:22.417Z,15.57
2018-05-04T00:58:49.037Z,16.17
2018-05-04T01:01:15.537Z,16.20
2018-05-04T01:03:42.041Z,15.97
2018-05-04T01:06:08.548Z,14.67
2018-05-04T01:08:34.967Z,15.10
2018-05-04T01:11:01.606Z,15.57
2018-05-04T01:13:27.992Z,13.93
2018-05-04T01:15:54.474Z,14.73
2018-05-04T01:18:20.927Z,14.53
2018-05-04T01:20:47.443Z,14.17
2018-05-04T01:23:13.936Z,13.50
2018-05-04T01:25:40.472Z,14.47
2018-05-04T01:28:07.053Z,14.70
2018-05-04T01:30:33.485Z,14.10
2018-05-04T01:32:59.936Z,14.07
2018-05-04T01:35:26.389Z,14.37
2018-05-04T01:37:53.050Z,14.77
2018-05-04T01:40:19.560Z,15.37
2018-05-04T01:42:46.044Z,15.60
2018-05-04T01:45:12.559Z,14.97
2018-05-04T01:47:39.132Z,22.87
2018-05-04T01:50:05.701Z,31.73
2018-05-04T01:52:32.173Z,28.33
2018-05-04T01:54:58.816Z,24.83
2018-05-04T01:57:25.221Z,23.50
2018-05-04T01:59:51.608Z,24.23
2018-05-04T02:02:18.224Z,23.97
2018-05-04T02:04:44.743Z,21.23
2018-05-04T02:07:11.251Z,20.03
2018-05-04T02:09:37.788Z,18.27
2018-05-04T02:12:04.347Z,17.57
2018-05-04T02:14:30.852Z,15.60
2018-05-04T02:16:57.362Z,15.63
2018-05-04T02:19:23.848Z,14.27
2018-05-04T02:21:50.336Z,12.80
2018-05-04T02:24:16.791Z,13.73
2018-05-04T02:26:43.335Z,14.33
2018-05-04T02:29:09.909Z,13.00
2018-05-04T02:31:36.261Z,14.60
2018-05-04T02:34:02.783Z,14.10
2018-05-04T02:36:29.359Z,13.30
2018-05-04T02:38:55.875Z,13.27
2018-05-04T02:41:22.332Z,13.87
2018-05-04T02:43:48.765Z,14.17
2018-05-04T02:46:15.293Z,14.80
2018-05-04T02:48:41.838Z,14.40
2018-05-04T02:51:08.364Z,13.97
2018-05-04T02:53:34.874Z,13.73
2018-05-04T02:56:01.441Z,12.80
2018-05-04T02:58:27.889Z,13.77
2018-05-04T03:00:54.356Z,13.47
2018-05-04T03:03:20.947Z,13.53
2018-05-04T03:05:47.398Z,12.90
2018-05-04T03:08:13.875Z,13.67
2018-05-04T03:10:40.455Z,13.10
2018-05-04T03:13:07.004Z,13.77
2018-05-04T03:15:33.453Z,14.17
2018-05-04T03:17:59.997Z,13.73
2018-05-04T03:20:26.595Z,14.40
2018-05-04T03:22:53.064Z,13.50
2018-05-04T03:25:19.585Z,17.23
2018-05-04T03:27:46.226Z,16.47
2018-05-04T03:30:12.733Z,14.40
2018-05-04T03:32:39.328Z,13.63
2018-05-04T03:35:05.757Z,15.50
2018-05-04T03:37:32.220Z,16.17
2018-05-04T03:39:58.789Z,15.00
2018-05-04T03:42:25.213Z,14.73
2018-05-04T03:44:51.680Z,14.40
2018-05-04T03:47:19.045Z,14.47
2018-05-04T03:49:45.554Z,13.53
2018-05-04T03:52:12.137Z,14.10
2018-05-04T03:54:38.646Z,14.43
2018-05-04T03:57:17.209Z,14.73
2018-05-04T03:59:55.914Z,14.30
2018-05-04T04:02:34.540Z,14.13
2018-05-04T04:05:00.780Z,13.93
2018-05-04T04:07:27.316Z,14.23
2018-05-04T04:09:53.797Z,13.67
2018-05-04T04:12:20.458Z,15.77
2018-05-04T04:14:47.101Z,14.23
2018-05-04T04:17:13.564Z,15.20
2018-05-04T04:19:39.947Z,15.00
2018-05-04T04:22:06.391Z,13.97
2018-05-04T04:24:32.876Z,15.23
2018-05-04T04:26:59.394Z,15.57
2018-05-04T04:29:25.858Z,15.83
2018-05-04T04:31:52.363Z,15.53
2018-05-04T04:34:19.009Z,16.10
2018-05-04T04:36:45.476Z,16.83
2018-05-04T04:39:12.013Z,16.77
2018-05-04T04:41:38.524Z,17.23
2018-05-04T04:44:05.009Z,18.27
2018-05-04T04:46:31.512Z,18.10
2018-05-04T04:48:58.025Z,18.70
2018-05-04T04:51:24.518Z,19.17
2018-05-04T04:53:51.042Z,18.80
2018-05-04T04:56:17.540Z,18.17
2018-05-04T04:58:44.021Z,17.83
2018-05-04T05:01:10.592Z,18.87
2018-05-04T05:03:37.070Z,19.77
2018-05-04T05:06:04.164Z,18.77
2018-05-04T05:08:30.890Z,16.87
2018-05-04T05:10:57.884Z,18.97
2018-05-04T05:13:24.892Z,16.77
2018-05-04T05:15:52.509Z,16.80
2018-05-04T05:18:19.184Z,16.03
2018-05-04T05:20:45.632Z,15.33
2018-05-04T05:23:12.143Z,15.20
2018-05-04T05:25:38.592Z,15.70
2018-05-04T05:28:05.085Z,14.93
2018-05-04T05:30:31.745Z,14.57
2018-05-04T05:32:58.234Z,14.80
2018-05-04T05:35:24.786Z,15.57
2018-05-04T05:37:51.465Z,14.70
2018-05-04T05:40:17.929Z,14.23
2018-05-04T05:42:44.438Z,13.80
2018-05-04T05:45:10.819Z,13.87
2018-05-04T05:47:37.408Z,15.03
2018-05-04T05:50:04.022Z,14.00
2018-05-04T05:52:30.597Z,14.87
2018-05-04T05:54:57.084Z,14.87
2018-05-04T05:57:23.628Z,14.50
2018-05-04T05:59:50.218Z,14.70
2018-05-04T06:02:16.662Z,14.70
2018-05-04T06:04:43.143Z,13.57
2018-05-04T06:07:09.610Z,13.50
2018-05-04T06:09:36.133Z,14.23
2018-05-04T06:12:02.753Z,13.83
2018-05-04T06:14:29.244Z,13.80
2018-05-04T06:16:55.608Z,14.20
2018-05-04T06:19:22.048Z,13.87
2018-05-04T06:21:48.564Z,14.00
2018-05-04T06:24:15.076Z,14.70
2018-05-04T06:26:41.561Z,13.80
2018-05-04T06:29:08.031Z,13.97
2018-05-04T06:31:34.602Z,14.43
2018-05-04T06:34:01.111Z,16.57
2018-05-04T06:36:27.520Z,14.10
2018-05-04T06:38:54.050Z,13.33
2018-05-04T06:41:20.569Z,14.83
2018-05-04T06:43:47.103Z,12.40
2018-05-04T06:46:13.699Z,12.23
2018-05-04T06:48:40.192Z,12.10
2018-05-04T06:51:06.903Z,12.67
2018-05-04T06:53:33.564Z,13.37
2018-05-04T06:56:00.086Z,12.47
2018-05-04T06:58:27.068Z,11.63
2018-05-04T07:00:53.592Z,12.17
2018-05-04T07:03:20.126Z,12.33
2018-05-04T07:05:46.579Z,11.60
2018-05-04T07:08:13.138Z,11.97
2018-05-04T07:10:39.699Z,13.00
2018-05-04T07:13:06.200Z,12.03
2018-05-04T07:15:32.730Z,12.10
2018-05-04T07:17:59.265Z,12.37
2018-05-04T07:20:25.746Z,13.33
2018-05-04T07:22:52.246Z,12.27
2018-05-04T07:25:18.608Z,11.93
2018-05-04T07:27:45.117Z,12.13
2018-05-04T07:30:11.564Z,12.40
2018-05-04T07:32:37.978Z,12.67
2018-05-04T07:35:04.366Z,13.20
2018-05-04T07:37:30.906Z,13.47
2018-05-04T07:39:57.496Z,12.07
2018-05-04T07:42:24.028Z,13.43
2018-05-04T07:44:50.548Z,11.57
2018-05-04T07:47:17.140Z,12.40
2018-05-04T07:49:43.736Z,11.57
2018-05-04T07:52:10.209Z,12.63
2018-05-04T07:54:36.655Z,12.10
2018-05-04T07:57:03.060Z,23.97
2018-05-04T07:59:29.501Z,35.37
2018-05-04T08:01:55.904Z,90.50
2018-05-04T08:04:22.277Z,29.97
2018-05-04T08:06:48.698Z,114.07
2018-05-04T08:09:15.066Z,209.67
2018-05-04T08:11:41.447Z,46.90
2018-05-04T08:14:07.852Z,35.87
2018-05-04T08:16:34.276Z,26.90
2018-05-04T08:19:00.613Z,14.60
2018-05-04T08:21:27.017Z,14.73
2018-05-04T08:23:53.377Z,12.00
2018-05-04T08:26:19.836Z,11.40
2018-05-04T08:35:08.148Z,53.53
2018-05-04T08:37:34.615Z,37.27
2018-05-04T08:40:01.031Z,40.03
2018-05-04T08:42:27.479Z,38.67
2018-05-04T08:44:53.962Z,30.47
2018-05-04T08:47:20.561Z,17.83
2018-05-04T08:49:47.069Z,13.20
2018-05-04T08:52:13.592Z,13.50
2018-05-04T09:00:12.235Z,12.00
2018-05-04T09:02:38.703Z,14.47
2018-05-04T09:05:05.260Z,14.33
2018-05-04T09:07:31.669Z,12.60
2018-05-04T09:09:58.126Z,29.63
2018-05-04T09:12:24.729Z,24.73
2018-05-04T09:14:51.221Z,22.43
2018-05-04T09:17:17.616Z,19.97
2018-05-04T09:19:44.295Z,25.07
2018-05-04T09:22:10.856Z,12.53
2018-05-04T09:24:37.484Z,11.40
2018-05-04T09:27:03.897Z,70.27
2018-05-04T09:29:30.263Z,44.10
2018-05-04T09:31:56.661Z,19.80
2018-05-04T09:34:23.145Z,22.20
2018-05-04T09:36:49.568Z,23.37
2018-05-04T09:39:16.038Z,14.27
2018-05-04T09:41:42.618Z,11.50
2018-05-04T09:44:09.124Z,14.13
2018-05-04T09:46:35.588Z,21.47
2018-05-04T09:49:02.040Z,11.77
2018-05-04T09:51:28.548Z,10.80
2018-05-04T09:53:55.094Z,12.23
2018-05-04T09:56:21.521Z,9.97
2018-05-04T09:58:48.020Z,11.63
2018-05-04T10:01:14.585Z,14.53
2018-05-04T10:03:40.949Z,17.27
2018-05-04T10:06:07.411Z,12.60
2018-05-04T10:08:33.912Z,11.80
2018-05-04T10:11:00.471Z,11.70
2018-05-04T10:13:26.929Z,11.30
2018-05-04T10:15:53.384Z,10.93
2018-05-04T10:18:19.728Z,9.70
2018-05-04T10:20:46.112Z,10.37
2018-05-04T10:23:12.531Z,13.57
2018-05-04T10:25:38.948Z,10.60
2018-05-04T10:28:05.400Z,9.03
2018-05-04T10:30:31.901Z,10.60
2018-05-04T10:32:58.356Z,12.63
2018-05-04T10:35:24.832Z,10.10
2018-05-04T10:37:51.302Z,9.50
2018-05-04T10:40:17.737Z,10.03
2018-05-04T10:42:44.213Z,9.80
2018-05-04T10:45:10.642Z,9.90
2018-05-04T10:47:37.043Z,10.67
2018-05-04T10:50:03.581Z,9.37
2018-05-04T10:52:30.016Z,9.60
2018-05-04T10:54:56.497Z,8.83
2018-05-04T10:57:23.284Z,10.13
2018-05-04T10:59:49.800Z,10.90
2018-05-04T11:02:16.279Z,9.07
2018-05-04T11:04:42.836Z,10.00
2018-05-04T11:07:09.368Z,10.30
2018-05-04T11:09:35.933Z,8.50
2018-05-04T11:12:02.421Z,8.80
2018-05-04T11:14:28.927Z,10.70
2018-05-04T11:16:55.457Z,9.87
2018-05-04T11:19:22.035Z,8.77
2018-05-04T11:21:48.508Z,12.13
2018-05-04T11:24:15.049Z,12.10
2018-05-04T11:29:12.799Z,42.50
2018-05-04T11:31:39.312Z,11.93
2018-05-04T11:34:05.808Z,29.87
2018-05-04T11:36:32.292Z,13.03
2018-05-04T11:38:58.849Z,10.10
2018-05-04T11:41:25.321Z,15.07
2018-05-04T11:43:51.877Z,17.93
2018-05-04T11:46:18.316Z,21.20
2018-05-04T11:48:44.748Z,12.27
2018-05-04T11:51:11.340Z,9.63
2018-05-04T11:53:38.424Z,18.33
2018-05-04T11:56:04.912Z,11.47
2018-05-04T11:58:31.878Z,15.90
2018-05-04T12:00:58.340Z,13.80
2018-05-04T12:03:24.811Z,9.97
2018-05-04T12:05:51.406Z,11.50
2018-05-04T12:08:18.032Z,10.43
2018-05-04T12:10:44.540Z,11.47
2018-05-04T12:13:11.128Z,12.20
2018-05-04T12:15:37.774Z,10.10
2018-05-04T12:18:04.362Z,10.27
2018-05-04T12:20:30.900Z,8.67
2018-05-04T12:22:57.677Z,9.33
2018-05-04T12:25:24.320Z,14.27
2018-05-04T12:27:50.709Z,8.80
2018-05-04T12:30:17.220Z,9.87
2018-05-04T12:32:43.704Z,29.13
2018-05-04T12:35:10.116Z,37.33
2018-05-04T12:37:36.565Z,8.30
2018-05-04T12:40:03.096Z,19.93
2018-05-04T12:42:29.512Z,30.43
2018-05-04T12:44:56.060Z,8.90
2018-05-04T12:47:22.564Z,15.77
2018-05-04T12:49:49.117Z,7.50
2018-05-04T12:52:15.565Z,10.50
2018-05-04T12:54:42.216Z,33.97
2018-05-04T12:57:08.646Z,13.30
2018-05-04T12:59:35.336Z,13.20
2018-05-04T13:02:01.827Z,8.80
2018-05-04T13:04:28.341Z,26.13
2018-05-04T13:06:55.241Z,22.97
2018-05-04T13:09:21.984Z,34.17
2018-05-04T13:11:48.375Z,29.27
2018-05-04T13:14:14.841Z,41.77
2018-05-04T13:16:41.309Z,12.80
2018-05-04T13:19:07.881Z,27.93
2018-05-04T13:21:34.406Z,36.27
2018-05-04T13:24:01.022Z,18.57
2018-05-04T13:26:27.590Z,30.50
2018-05-04T13:28:54.157Z,12.43
2018-05-04T13:31:20.601Z,12.97
2018-05-04T13:33:47.071Z,23.20
2018-05-04T13:36:13.619Z,12.97
2018-05-04T13:38:40.037Z,12.93
2018-05-04T13:41:06.542Z,11.37
2018-05-04T13:43:33.197Z,22.10
2018-05-04T13:45:59.689Z,31.07
2018-05-04T13:48:26.252Z,20.17
2018-05-04T13:50:52.808Z,31.60
2018-05-04T13:53:19.231Z,21.47
2018-05-04T13:55:50.644Z,14.57
2018-05-04T13:58:17.154Z,10.50
2018-05-04T14:00:47.419Z,22.77
2018-05-04T14:03:14.059Z,14.40
2018-05-04T14:05:40.564Z,20.03
2018-05-04T14:08:07.019Z,21.97
2018-05-04T14:10:33.481Z,16.43
2018-05-04T14:13:00.054Z,10.00
2018-05-04T14:15:26.484Z,15.30
2018-05-04T14:17:53.044Z,15.83
2018-05-04T14:20:19.594Z,20.70
2018-05-04T14:22:46.045Z,17.67
2018-05-04T14:25:12.580Z,16.47
2018-05-04T14:27:39.184Z,20.47
2018-05-04T14:30:05.798Z,18.20
2018-05-04T14:32:32.309Z,15.87
2018-05-04T14:34:58.893Z,15.33
2018-05-04T14:37:26.170Z,16.93
2018-05-04T14:39:52.685Z,14.30
2018-05-04T14:42:19.192Z,13.67
2018-05-04T14:44:45.715Z,13.43
2018-05-04T14:47:12.313Z,12.37
2018-05-04T14:49:38.796Z,10.47
2018-05-04T14:52:05.353Z,10.50
2018-05-04T14:54:31.782Z,9.37
2018-05-04T14:56:58.241Z,12.40
2018-05-04T14:59:24.871Z,14.40
2018-05-04T15:01:51.539Z,14.37
2018-05-04T15:04:18.237Z,11.87
2018-05-04T15:06:44.720Z,10.20
2018-05-04T15:09:11.254Z,11.97
2018-05-04T15:11:37.845Z,7.27
2018-05-04T15:14:04.394Z,7.47
2018-05-04T15:16:30.924Z,6.87
2018-05-04T15:18:57.420Z,6.23
2018-05-04T15:21:23.932Z,5.33
2018-05-04T15:23:50.372Z,8.00
2018-05-04T15:26:16.959Z,6.20
2018-05-04T15:28:43.421Z,12.67
2018-05-04T15:31:09.910Z,12.23
2018-05-04T15:33:36.420Z,11.93
2018-05-04T15:36:02.932Z,27.10
2018-05-04T15:38:29.518Z,26.47
2018-05-04T15:40:56.277Z,25.30
2018-05-04T15:43:22.783Z,13.47
2018-05-04T15:45:49.240Z,20.60
2018-05-04T15:48:21.944Z,6.43
2018-05-04T15:50:54.657Z,19.97
2018-05-04T15:53:21.212Z,11.03
2018-05-04T15:55:47.702Z,6.00
2018-05-04T15:58:14.345Z,14.77
2018-05-04T16:00:40.980Z,11.40
2018-05-04T16:03:07.645Z,8.47
2018-05-04T16:05:34.196Z,13.30
2018-05-04T16:08:00.789Z,10.30
2018-05-04T16:10:27.455Z,7.30
2018-05-04T16:12:54.027Z,10.07
2018-05-04T16:15:20.508Z,12.30
2018-05-04T16:17:47.202Z,8.63
2018-05-04T16:20:13.711Z,10.07
2018-05-04T16:22:40.328Z,4.83
2018-05-04T16:25:06.904Z,3.07
2018-05-04T16:27:33.669Z,3.17
2018-05-04T16:30:00.372Z,3.90
2018-05-04T16:32:26.833Z,4.90
2018-05-04T16:34:53.304Z,3.37
2018-05-04T16:37:19.757Z,4.17
2018-05-04T16:39:46.277Z,4.20
2018-05-04T16:42:12.798Z,3.13
2018-05-04T16:44:39.168Z,3.13
2018-05-04T16:47:11.708Z,4.67
2018-05-04T16:49:38.245Z,3.40
2018-05-04T16:52:04.699Z,7.13
2018-05-04T16:54:31.205Z,10.23
2018-05-04T16:56:57.719Z,7.03
2018-05-04T16:59:24.353Z,7.67
2018-05-04T17:01:51.287Z,5.03
2018-05-04T17:04:17.801Z,5.03
2018-05-04T17:06:44.242Z,5.47
2018-05-04T17:09:11.198Z,5.67
2018-05-04T17:11:37.689Z,4.63
2018-05-04T17:14:04.265Z,4.70
2018-05-04T17:16:31.052Z,4.80
2018-05-04T17:18:57.506Z,4.73
2018-05-04T17:21:24.077Z,4.87
2018-05-04T17:23:50.744Z,4.93
2018-05-04T17:26:17.332Z,5.00
2018-05-04T17:28:43.739Z,4.30
2018-05-04T17:31:10.304Z,4.37
2018-05-04T17:33:36.836Z,4.73
2018-05-04T17:36:03.317Z,4.03
2018-05-04T17:38:30.017Z,4.23
2018-05-04T17:40:56.444Z,4.63
2018-05-04T17:43:23.017Z,3.73
2018-05-04T17:45:49.577Z,4.10
2018-05-04T17:48:16.167Z,4.57
2018-05-04T17:50:43.450Z,5.00
2018-05-04T17:53:09.859Z,4.90
2018-05-04T17:55:36.525Z,6.07
2018-05-04T17:58:03.025Z,5.90
2018-05-04T18:00:29.512Z,5.63
2018-05-04T18:02:56.644Z,5.67
2018-05-04T18:05:23.210Z,6.53
2018-05-04T18:07:49.771Z,7.03
2018-05-04T18:10:16.363Z,6.67
2018-05-04T18:12:43.026Z,7.23
2018-05-04T18:15:09.515Z,8.70
2018-05-04T18:17:36.008Z,8.60
2018-05-04T18:20:02.767Z,9.07
2018-05-04T18:22:29.404Z,8.33
2018-05-04T18:24:55.965Z,7.40
2018-05-04T18:27:22.410Z,7.60
2018-05-04T18:29:48.955Z,9.03
2018-05-04T18:32:15.367Z,7.90
2018-05-04T18:34:41.779Z,7.63
2018-05-04T18:37:08.344Z,6.57
2018-05-04T18:39:34.920Z,8.90
2018-05-04T18:42:01.646Z,7.87
2018-05-04T18:44:28.060Z,11.23
2018-05-04T18:46:54.527Z,10.57
2018-05-04T18:49:21.161Z,10.53
2018-05-04T18:51:47.828Z,7.27
2018-05-04T18:54:14.268Z,6.20
2018-05-04T18:56:40.723Z,6.53
2018-05-04T18:59:07.208Z,6.00
2018-05-04T19:01:33.723Z,5.40
2018-05-04T19:04:00.187Z,5.00
2018-05-04T19:06:26.837Z,5.27
2018-05-04T19:08:53.485Z,6.93
2018-05-04T19:11:20.036Z,4.93
2018-05-04T19:13:46.621Z,5.23
2018-05-04T19:16:13.009Z,5.50
2018-05-04T19:18:39.617Z,4.70
2018-05-04T19:21:06.253Z,5.67
2018-05-04T19:23:32.727Z,5.47
2018-05-04T19:25:59.173Z,5.07
2018-05-04T19:28:25.725Z,4.90
2018-05-04T19:30:52.149Z,5.23
2018-05-04T19:33:18.633Z,5.67
2018-05-04T19:35:45.231Z,5.30
2018-05-04T19:38:11.792Z,5.60
2018-05-04T19:40:38.221Z,6.57
2018-05-04T19:43:04.664Z,5.70
2018-05-04T19:45:31.173Z,5.07
2018-05-04T19:47:57.622Z,5.50
2018-05-04T19:50:24.194Z,5.43
2018-05-04T19:52:50.676Z,5.37
2018-05-04T19:55:17.169Z,5.80
2018-05-04T19:57:43.711Z,5.70
2018-05-04T20:00:10.161Z,4.90
2018-05-04T20:02:36.656Z,5.23
2018-05-04T20:05:03.208Z,5.10
2018-05-04T20:07:29.749Z,6.47
2018-05-04T20:09:56.244Z,4.97
2018-05-04T20:12:22.768Z,5.50
2018-05-04T20:14:49.265Z,4.77
2018-05-04T20:17:15.853Z,4.53
2018-05-04T20:19:42.232Z,4.93
2018-05-04T20:22:08.804Z,5.20
2018-05-04T20:24:35.293Z,5.50
2018-05-04T20:27:01.820Z,4.93
2018-05-04T20:29:28.329Z,4.90
2018-05-04T20:31:54.790Z,4.73
2018-05-04T20:34:22.345Z,6.87
2018-05-04T20:36:48.929Z,5.20
2018-05-04T20:39:15.393Z,4.93
2018-05-04T20:41:41.853Z,5.27
2018-05-04T20:44:08.376Z,5.30
2018-05-04T20:46:34.921Z,5.50
2018-05-04T20:49:01.389Z,6.27
2018-05-04T20:51:27.860Z,6.30
2018-05-04T20:53:54.372Z,5.73
2018-05-04T20:56:20.824Z,5.67
2018-05-04T20:58:47.477Z,5.70
2018-05-04T21:01:13.940Z,5.90
2018-05-04T21:03:40.451Z,5.50
2018-05-04T21:06:07.023Z,6.00
2018-05-04T21:08:33.538Z,6.40
2018-05-04T21:11:00.176Z,6.10
2018-05-04T21:13:26.664Z,6.50
2018-05-04T21:15:53.152Z,5.93
2018-05-04T21:18:19.657Z,5.77
2018-05-04T21:20:46.217Z,6.10
2018-05-04T21:23:12.733Z,6.07
2018-05-04T21:25:39.329Z,6.47
2018-05-04T21:28:05.878Z,6.20
2018-05-04T21:30:32.349Z,6.10
2018-05-04T21:32:58.832Z,6.03
2018-05-04T21:35:25.233Z,5.80
2018-05-04T21:37:51.783Z,6.20
2018-05-04T21:40:18.242Z,5.80
2018-05-04T21:42:44.773Z,6.53
2018-05-04T21:45:11.520Z,6.87
2018-05-04T21:47:37.960Z,7.47
2018-05-04T21:50:04.460Z,7.30
2018-05-04T21:52:30.914Z,7.43
2018-05-04T21:54:57.425Z,7.53
2018-05-04T21:57:23.933Z,8.67
2018-05-04T21:59:50.504Z,9.27
2018-05-04T22:02:17.152Z,8.20
2018-05-04T22:04:43.623Z,7.47
2018-05-04T22:07:10.134Z,7.80
2018-05-04T22:09:36.778Z,6.97
2018-05-04T22:12:03.180Z,6.90
2018-05-04T22:14:29.685Z,7.20
2018-05-04T22:16:56.185Z,7.10
2018-05-04T22:19:22.693Z,6.73
2018-05-04T22:21:49.220Z,6.40
2018-05-04T22:24:15.762Z,7.00
2018-05-04T22:26:42.334Z,7.10
2018-05-04T22:29:08.812Z,6.73
2018-05-04T22:31:35.256Z,6.87
2018-05-04T22:34:01.841Z,7.23
2018-05-04T22:36:28.361Z,7.20
2018-05-04T22:38:54.868Z,7.43
2018-05-04T22:41:21.300Z,7.00
2018-05-04T22:43:47.739Z,7.03
2018-05-04T22:46:14.285Z,7.63
2018-05-04T22:48:40.854Z,6.93
2018-05-04T22:51:07.414Z,8.03
2018-05-04T22:53:34.132Z,7.47
2018-05-04T22:56:00.600Z,7.70
2018-05-04T22:58:27.071Z,7.33
2018-05-04T23:00:53.616Z,7.83
2018-05-04T23:03:20.054Z,7.57
2018-05-04T23:05:46.667Z,7.70
2018-05-04T23:08:13.108Z,7.77
2018-05-04T23:10:39.872Z,7.67
2018-05-04T23:13:06.354Z,7.73
2018-05-04T23:15:32.865Z,7.67
2018-05-04T23:17:59.340Z,7.40
2018-05-04T23:20:25.887Z,8.27
2018-05-04T23:22:52.305Z,7.53
2018-05-04T23:25:18.821Z,7.53
2018-05-04T23:27:45.323Z,8.03
2018-05-04T23:30:11.737Z,8.23
2018-05-04T23:32:38.309Z,7.27
2018-05-04T23:35:04.788Z,8.07
2018-05-04T23:37:31.409Z,7.27
2018-05-04T23:39:57.904Z,8.27
2018-05-04T23:42:24.457Z,7.77
2018-05-04T23:44:51.117Z,7.93
2018-05-04T23:47:17.700Z,8.30
2018-05-04T23:49:44.142Z,7.83
2018-05-04T23:52:10.602Z,7.30
2018-05-04T23:54:37.156Z,7.57
2018-05-04T23:57:03.617Z,7.63
2018-05-04T23:59:30.177Z,7.40
